sensor_id;sensor_type;location;lat;lon;timestamp;temperature;humidity
73277;DHT22;61501;43.316;5.372;2023-08-12T00:00:01;23.40;99.90
73277;DHT22;61501;43.316;5.372;2023-08-12T00:02:38;23.30;99.90
73277;DHT22;61501;43.316;5.372;2023-08-12T00:05:04;23.30;99.90
73277;DHT22;61501;43.316;5.372;2023-08-12T00:07:30;23.40;99.90
73277;DHT22;61501;43.316;5.372;2023-08-12T00:09:56;23.40;99.90
73277;DHT22;61501;43.316;5.372;2023-08-12T00:12:22;23.40;99.90
73277;DHT22;61501;43.316;5.372;2023-08-12T00:14:47;23.40;99.90
73277;DHT22;61501;43.316;5.372;2023-08-12T00:17:13;23.50;99.90
73277;DHT22;61501;43.316;5.372;2023-08-12T00:19:38;23.40;99.90
73277;DHT22;61501;43.316;5.372;2023-08-12T00:22:04;23.50;99.90
73277;DHT22;61501;43.316;5.372;2023-08-12T00:24:30;23.50;99.90
73277;DHT22;61501;43.316;5.372;2023-08-12T00:26:56;23.50;99.90
73277;DHT22;61501;43.316;5.372;2023-08-12T00:29:21;23.50;99.90
73277;DHT22;61501;43.316;5.372;2023-08-12T00:31:47;23.50;99.90
73277;DHT22;61501;43.316;5.372;2023-08-12T00:34:13;23.50;99.90
73277;DHT22;61501;43.316;5.372;2023-08-12T00:36:38;23.50;99.90
73277;DHT22;61501;43.316;5.372;2023-08-12T00:39:04;23.50;99.90
73277;DHT22;61501;43.316;5.372;2023-08-12T00:41:30;23.50;99.90
73277;DHT22;61501;43.316;5.372;2023-08-12T00:43:56;23.50;99.90
73277;DHT22;61501;43.316;5.372;2023-08-12T00:46:22;23.50;99.90
73277;DHT22;61501;43.316;5.372;2023-08-12T00:48:48;23.50;99.90
73277;DHT22;61501;43.316;5.372;2023-08-12T00:51:16;23.50;99.90
73277;DHT22;61501;43.316;5.372;2023-08-12T00:53:42;23.50;99.90
73277;DHT22;61501;43.316;5.372;2023-08-12T00:56:10;23.50;99.90
73277;DHT22;61501;43.316;5.372;2023-08-12T00:58:35;23.50;99.90
73277;DHT22;61501;43.316;5.372;2023-08-12T01:01:01;23.50;99.90
73277;DHT22;61501;43.316;5.372;2023-08-12T01:03:27;23.50;99.90
73277;DHT22;61501;43.316;5.372;2023-08-12T01:05:53;23.50;99.90
73277;DHT22;61501;43.316;5.372;2023-08-12T01:08:18;23.50;99.90
73277;DHT22;61501;43.316;5.372;2023-08-12T01:10:49;23.50;99.90
73277;DHT22;61501;43.316;5.372;2023-08-12T01:13:29;23.50;99.90
73277;DHT22;61501;43.316;5.372;2023-08-12T01:15:59;23.50;99.90
73277;DHT22;61501;43.316;5.372;2023-08-12T01:18:26;23.50;99.90
73277;DHT22;61501;43.316;5.372;2023-08-12T01:20:53;23.50;99.90
73277;DHT22;61501;43.316;5.372;2023-08-12T01:23:19;23.50;99.90
73277;DHT22;61501;43.316;5.372;2023-08-12T01:25:45;23.40;99.90
73277;DHT22;61501;43.316;5.372;2023-08-12T01:28:11;23.40;99.90
73277;DHT22;61501;43.316;5.372;2023-08-12T01:30:50;23.40;99.90
73277;DHT22;61501;43.316;5.372;2023-08-12T01:33:32;23.50;99.90
73277;DHT22;61501;43.316;5.372;2023-08-12T01:36:14;23.40;99.90
73277;DHT22;61501;43.316;5.372;2023-08-12T01:38:42;23.40;99.90
73277;DHT22;61501;43.316;5.372;2023-08-12T01:41:10;23.40;99.90
73277;DHT22;61501;43.316;5.372;2023-08-12T01:43:38;23.30;99.90
73277;DHT22;61501;43.316;5.372;2023-08-12T01:46:04;23.30;99.90
73277;DHT22;61501;43.316;5.372;2023-08-12T01:48:30;23.30;99.90
73277;DHT22;61501;43.316;5.372;2023-08-12T01:50:55;23.30;99.90
73277;DHT22;61501;43.316;5.372;2023-08-12T01:53:21;23.30;99.90
73277;DHT22;61501;43.316;5.372;2023-08-12T01:55:48;23.30;99.90
73277;DHT22;61501;43.316;5.372;2023-08-12T01:58:14;23.30;99.90
73277;DHT22;61501;43.316;5.372;2023-08-12T02:00:40;23.30;99.90
73277;DHT22;61501;43.316;5.372;2023-08-12T02:03:05;23.30;99.90
73277;DHT22;61501;43.316;5.372;2023-08-12T02:05:32;23.30;99.90
73277;DHT22;61501;43.316;5.372;2023-08-12T02:07:58;23.30;99.90
73277;DHT22;61501;43.316;5.372;2023-08-12T02:10:24;23.30;99.90
73277;DHT22;61501;43.316;5.372;2023-08-12T02:12:49;23.30;99.90
73277;DHT22;61501;43.316;5.372;2023-08-12T02:15:15;23.30;99.90
73277;DHT22;61501;43.316;5.372;2023-08-12T02:17:41;23.30;99.90
73277;DHT22;61501;43.316;5.372;2023-08-12T02:20:07;23.30;99.90
73277;DHT22;61501;43.316;5.372;2023-08-12T02:22:32;23.30;99.90
73277;DHT22;61501;43.316;5.372;2023-08-12T02:24:58;23.30;99.90
73277;DHT22;61501;43.316;5.372;2023-08-12T02:27:24;23.30;99.90
73277;DHT22;61501;43.316;5.372;2023-08-12T02:29:49;23.30;99.90
73277;DHT22;61501;43.316;5.372;2023-08-12T02:32:15;23.30;99.90
73277;DHT22;61501;43.316;5.372;2023-08-12T02:34:41;23.20;99.90
73277;DHT22;61501;43.316;5.372;2023-08-12T02:37:06;23.20;99.90
73277;DHT22;61501;43.316;5.372;2023-08-12T02:39:32;23.30;99.90
73277;DHT22;61501;43.316;5.372;2023-08-12T02:41:57;23.20;99.90
73277;DHT22;61501;43.316;5.372;2023-08-12T02:44:23;23.20;99.90
73277;DHT22;61501;43.316;5.372;2023-08-12T02:46:49;23.20;99.90
73277;DHT22;61501;43.316;5.372;2023-08-12T02:49:14;23.20;99.90
73277;DHT22;61501;43.316;5.372;2023-08-12T02:51:40;23.20;99.90
73277;DHT22;61501;43.316;5.372;2023-08-12T02:54:05;23.20;99.90
73277;DHT22;61501;43.316;5.372;2023-08-12T02:56:31;23.20;99.90
73277;DHT22;61501;43.316;5.372;2023-08-12T02:58:57;23.20;99.90
73277;DHT22;61501;43.316;5.372;2023-08-12T03:01:23;23.20;99.90
73277;DHT22;61501;43.316;5.372;2023-08-12T03:03:48;23.20;99.90
73277;DHT22;61501;43.316;5.372;2023-08-12T03:06:14;23.20;99.90
73277;DHT22;61501;43.316;5.372;2023-08-12T03:08:39;23.10;99.90
73277;DHT22;61501;43.316;5.372;2023-08-12T03:11:05;23.20;99.90
73277;DHT22;61501;43.316;5.372;2023-08-12T03:13:31;23.20;99.90
73277;DHT22;61501;43.316;5.372;2023-08-12T03:15:56;23.10;99.90
73277;DHT22;61501;43.316;5.372;2023-08-12T03:18:22;23.10;99.90
73277;DHT22;61501;43.316;5.372;2023-08-12T03:20:48;23.10;99.90
73277;DHT22;61501;43.316;5.372;2023-08-12T03:23:15;23.10;99.90
73277;DHT22;61501;43.316;5.372;2023-08-12T03:25:41;23.10;99.90
73277;DHT22;61501;43.316;5.372;2023-08-12T03:28:06;23.10;99.90
73277;DHT22;61501;43.316;5.372;2023-08-12T03:30:32;23.10;99.90
73277;DHT22;61501;43.316;5.372;2023-08-12T03:32:58;23.10;99.90
73277;DHT22;61501;43.316;5.372;2023-08-12T03:35:23;23.10;99.90
73277;DHT22;61501;43.316;5.372;2023-08-12T03:37:49;23.10;99.90
73277;DHT22;61501;43.316;5.372;2023-08-12T03:40:16;23.00;99.90
73277;DHT22;61501;43.316;5.372;2023-08-12T03:42:42;23.00;99.90
73277;DHT22;61501;43.316;5.372;2023-08-12T03:45:08;23.00;99.90
73277;DHT22;61501;43.316;5.372;2023-08-12T03:47:34;22.90;99.90
73277;DHT22;61501;43.316;5.372;2023-08-12T03:49:59;22.90;99.90
73277;DHT22;61501;43.316;5.372;2023-08-12T03:52:25;22.90;99.90
73277;DHT22;61501;43.316;5.372;2023-08-12T03:54:50;22.90;99.90
73277;DHT22;61501;43.316;5.372;2023-08-12T03:57:18;22.90;99.90
73277;DHT22;61501;43.316;5.372;2023-08-12T03:59:44;22.80;99.90
73277;DHT22;61501;43.316;5.372;2023-08-12T04:02:09;22.80;99.90
73277;DHT22;61501;43.316;5.372;2023-08-12T04:04:35;22.80;99.90
73277;DHT22;61501;43.316;5.372;2023-08-12T04:07:00;22.70;99.90
73277;DHT22;61501;43.316;5.372;2023-08-12T04:09:26;22.70;99.90
73277;DHT22;61501;43.316;5.372;2023-08-12T04:11:51;22.70;99.90
73277;DHT22;61501;43.316;5.372;2023-08-12T04:14:17;22.70;99.90
73277;DHT22;61501;43.316;5.372;2023-08-12T04:16:43;22.60;99.90
73277;DHT22;61501;43.316;5.372;2023-08-12T04:19:08;22.50;99.90
73277;DHT22;61501;43.316;5.372;2023-08-12T04:21:34;22.50;99.90
73277;DHT22;61501;43.316;5.372;2023-08-12T04:24:00;22.40;99.90
73277;DHT22;61501;43.316;5.372;2023-08-12T04:26:25;22.50;99.90
73277;DHT22;61501;43.316;5.372;2023-08-12T04:28:51;22.40;99.90
73277;DHT22;61501;43.316;5.372;2023-08-12T04:31:17;22.30;99.90
73277;DHT22;61501;43.316;5.372;2023-08-12T04:33:42;22.30;99.90
73277;DHT22;61501;43.316;5.372;2023-08-12T04:36:08;22.30;99.90
73277;DHT22;61501;43.316;5.372;2023-08-12T04:38:33;22.30;99.90
73277;DHT22;61501;43.316;5.372;2023-08-12T04:41:00;22.30;99.90
73277;DHT22;61501;43.316;5.372;2023-08-12T04:43:26;22.40;99.90
73277;DHT22;61501;43.316;5.372;2023-08-12T04:45:52;22.40;99.90
73277;DHT22;61501;43.316;5.372;2023-08-12T04:48:17;22.40;99.90
73277;DHT22;61501;43.316;5.372;2023-08-12T04:50:43;22.50;99.90
73277;DHT22;61501;43.316;5.372;2023-08-12T04:53:09;22.50;99.90
73277;DHT22;61501;43.316;5.372;2023-08-12T04:55:35;22.50;99.90
73277;DHT22;61501;43.316;5.372;2023-08-12T04:58:02;22.50;99.90
73277;DHT22;61501;43.316;5.372;2023-08-12T05:00:27;22.60;99.90
73277;DHT22;61501;43.316;5.372;2023-08-12T05:02:53;22.60;99.90
73277;DHT22;61501;43.316;5.372;2023-08-12T05:05:19;22.60;99.90
73277;DHT22;61501;43.316;5.372;2023-08-12T05:07:45;22.70;99.90
73277;DHT22;61501;43.316;5.372;2023-08-12T05:10:15;22.70;99.90
73277;DHT22;61501;43.316;5.372;2023-08-12T05:12:42;22.60;99.90
73277;DHT22;61501;43.316;5.372;2023-08-12T05:15:09;22.70;99.90
73277;DHT22;61501;43.316;5.372;2023-08-12T05:17:35;22.60;99.90
73277;DHT22;61501;43.316;5.372;2023-08-12T05:20:00;22.60;99.90
73277;DHT22;61501;43.316;5.372;2023-08-12T05:22:26;22.60;99.90
73277;DHT22;61501;43.316;5.372;2023-08-12T05:24:52;22.70;99.90
73277;DHT22;61501;43.316;5.372;2023-08-12T05:27:17;22.70;99.90
73277;DHT22;61501;43.316;5.372;2023-08-12T05:29:43;22.70;99.90
73277;DHT22;61501;43.316;5.372;2023-08-12T05:32:08;22.70;99.90
73277;DHT22;61501;43.316;5.372;2023-08-12T05:34:34;22.70;99.90
73277;DHT22;61501;43.316;5.372;2023-08-12T05:37:00;22.80;99.90
73277;DHT22;61501;43.316;5.372;2023-08-12T05:39:25;22.90;99.90
73277;DHT22;61501;43.316;5.372;2023-08-12T05:41:51;22.90;99.90
73277;DHT22;61501;43.316;5.372;2023-08-12T05:44:17;22.90;99.90
73277;DHT22;61501;43.316;5.372;2023-08-12T05:46:43;22.90;99.90
73277;DHT22;61501;43.316;5.372;2023-08-12T05:49:09;23.00;99.90
73277;DHT22;61501;43.316;5.372;2023-08-12T05:51:35;23.10;99.90
73277;DHT22;61501;43.316;5.372;2023-08-12T05:54:00;23.10;99.90
73277;DHT22;61501;43.316;5.372;2023-08-12T05:56:26;23.00;99.90
73277;DHT22;61501;43.316;5.372;2023-08-12T05:58:52;23.00;99.90
73277;DHT22;61501;43.316;5.372;2023-08-12T06:01:18;23.10;99.90
73277;DHT22;61501;43.316;5.372;2023-08-12T06:03:44;23.10;99.90
73277;DHT22;61501;43.316;5.372;2023-08-12T06:06:09;23.10;99.90
73277;DHT22;61501;43.316;5.372;2023-08-12T06:08:35;23.20;99.90
73277;DHT22;61501;43.316;5.372;2023-08-12T06:11:01;23.30;99.90
73277;DHT22;61501;43.316;5.372;2023-08-12T06:13:26;23.40;99.90
73277;DHT22;61501;43.316;5.372;2023-08-12T06:15:52;23.50;99.90
73277;DHT22;61501;43.316;5.372;2023-08-12T06:18:18;23.60;99.90
73277;DHT22;61501;43.316;5.372;2023-08-12T06:20:43;23.50;99.90
73277;DHT22;61501;43.316;5.372;2023-08-12T06:23:09;23.50;99.90
73277;DHT22;61501;43.316;5.372;2023-08-12T06:25:34;23.60;99.90
73277;DHT22;61501;43.316;5.372;2023-08-12T06:28:02;23.70;99.90
73277;DHT22;61501;43.316;5.372;2023-08-12T06:30:30;23.70;99.90
73277;DHT22;61501;43.316;5.372;2023-08-12T06:32:55;23.70;99.90
73277;DHT22;61501;43.316;5.372;2023-08-12T06:35:21;23.70;99.90
73277;DHT22;61501;43.316;5.372;2023-08-12T06:37:47;23.60;99.90
73277;DHT22;61501;43.316;5.372;2023-08-12T06:40:12;23.40;99.90
73277;DHT22;61501;43.316;5.372;2023-08-12T06:42:38;23.40;99.90
73277;DHT22;61501;43.316;5.372;2023-08-12T06:45:04;23.30;99.90
73277;DHT22;61501;43.316;5.372;2023-08-12T06:47:30;23.20;99.90
73277;DHT22;61501;43.316;5.372;2023-08-12T06:49:55;23.30;99.90
73277;DHT22;61501;43.316;5.372;2023-08-12T06:52:21;23.30;99.90
73277;DHT22;61501;43.316;5.372;2023-08-12T06:54:47;23.20;99.90
73277;DHT22;61501;43.316;5.372;2023-08-12T06:57:12;23.10;99.90
73277;DHT22;61501;43.316;5.372;2023-08-12T06:59:38;23.10;99.90
73277;DHT22;61501;43.316;5.372;2023-08-12T07:02:06;23.10;99.90
73277;DHT22;61501;43.316;5.372;2023-08-12T07:04:32;23.00;99.90
73277;DHT22;61501;43.316;5.372;2023-08-12T07:06:57;23.00;99.90
73277;DHT22;61501;43.316;5.372;2023-08-12T07:09:23;22.80;99.90
73277;DHT22;61501;43.316;5.372;2023-08-12T07:11:48;22.80;99.90
73277;DHT22;61501;43.316;5.372;2023-08-12T07:14:14;22.90;99.90
73277;DHT22;61501;43.316;5.372;2023-08-12T07:16:40;22.80;99.90
73277;DHT22;61501;43.316;5.372;2023-08-12T07:19:05;22.80;99.90
73277;DHT22;61501;43.316;5.372;2023-08-12T07:21:31;22.60;99.90
73277;DHT22;61501;43.316;5.372;2023-08-12T07:23:56;22.70;99.90
73277;DHT22;61501;43.316;5.372;2023-08-12T07:26:22;22.80;99.90
73277;DHT22;61501;43.316;5.372;2023-08-12T07:28:48;22.80;99.90
73277;DHT22;61501;43.316;5.372;2023-08-12T07:31:13;23.00;99.90
73277;DHT22;61501;43.316;5.372;2023-08-12T07:33:39;22.70;99.90
73277;DHT22;61501;43.316;5.372;2023-08-12T07:36:05;22.60;99.90
73277;DHT22;61501;43.316;5.372;2023-08-12T07:38:31;22.50;99.90
73277;DHT22;61501;43.316;5.372;2023-08-12T07:40:57;22.50;99.90
73277;DHT22;61501;43.316;5.372;2023-08-12T07:43:22;22.40;99.90
73277;DHT22;61501;43.316;5.372;2023-08-12T07:45:54;22.40;99.90
73277;DHT22;61501;43.316;5.372;2023-08-12T07:48:21;22.50;99.90
73277;DHT22;61501;43.316;5.372;2023-08-12T07:50:46;22.60;99.90
73277;DHT22;61501;43.316;5.372;2023-08-12T07:53:15;22.70;99.90
73277;DHT22;61501;43.316;5.372;2023-08-12T07:55:41;22.70;99.90
73277;DHT22;61501;43.316;5.372;2023-08-12T07:58:07;22.60;99.90
73277;DHT22;61501;43.316;5.372;2023-08-12T08:00:33;22.40;99.90
73277;DHT22;61501;43.316;5.372;2023-08-12T08:02:59;22.40;99.90
73277;DHT22;61501;43.316;5.372;2023-08-12T08:05:24;22.50;99.90
73277;DHT22;61501;43.316;5.372;2023-08-12T08:07:50;22.50;99.90
73277;DHT22;61501;43.316;5.372;2023-08-12T08:10:15;22.50;99.90
73277;DHT22;61501;43.316;5.372;2023-08-12T08:12:41;22.50;99.90
73277;DHT22;61501;43.316;5.372;2023-08-12T08:15:07;22.60;99.90
73277;DHT22;61501;43.316;5.372;2023-08-12T08:17:33;22.50;99.90
73277;DHT22;61501;43.316;5.372;2023-08-12T08:19:58;22.40;99.90
73277;DHT22;61501;43.316;5.372;2023-08-12T08:22:24;22.50;99.90
73277;DHT22;61501;43.316;5.372;2023-08-12T08:24:49;22.50;99.90
73277;DHT22;61501;43.316;5.372;2023-08-12T08:27:15;22.40;99.90
73277;DHT22;61501;43.316;5.372;2023-08-12T08:29:41;22.30;99.90
73277;DHT22;61501;43.316;5.372;2023-08-12T08:32:06;22.20;99.90
73277;DHT22;61501;43.316;5.372;2023-08-12T08:34:32;22.30;99.90
73277;DHT22;61501;43.316;5.372;2023-08-12T08:36:57;22.40;99.90
73277;DHT22;61501;43.316;5.372;2023-08-12T08:39:23;22.40;99.90
73277;DHT22;61501;43.316;5.372;2023-08-12T08:41:49;22.30;99.90
73277;DHT22;61501;43.316;5.372;2023-08-12T08:44:15;22.40;99.90
73277;DHT22;61501;43.316;5.372;2023-08-12T08:46:42;22.30;99.90
73277;DHT22;61501;43.316;5.372;2023-08-12T08:49:09;22.40;99.90
73277;DHT22;61501;43.316;5.372;2023-08-12T08:51:35;22.50;99.90
73277;DHT22;61501;43.316;5.372;2023-08-12T08:54:05;22.00;99.90
73277;DHT22;61501;43.316;5.372;2023-08-12T08:56:34;22.00;99.90
73277;DHT22;61501;43.316;5.372;2023-08-12T08:59:00;22.20;99.90
73277;DHT22;61501;43.316;5.372;2023-08-12T09:01:26;22.30;99.90
73277;DHT22;61501;43.316;5.372;2023-08-12T09:03:52;22.50;99.90
73277;DHT22;61501;43.316;5.372;2023-08-12T09:06:21;22.60;99.90
73277;DHT22;61501;43.316;5.372;2023-08-12T09:08:49;22.20;99.90
73277;DHT22;61501;43.316;5.372;2023-08-12T09:11:17;22.20;99.90
73277;DHT22;61501;43.316;5.372;2023-08-12T09:13:43;22.40;99.90
73277;DHT22;61501;43.316;5.372;2023-08-12T09:16:09;22.40;99.90
73277;DHT22;61501;43.316;5.372;2023-08-12T09:18:36;22.50;99.90
73277;DHT22;61501;43.316;5.372;2023-08-12T09:21:02;22.20;99.90
73277;DHT22;61501;43.316;5.372;2023-08-12T09:23:28;22.10;99.90
73277;DHT22;61501;43.316;5.372;2023-08-12T09:25:54;22.30;99.90
73277;DHT22;61501;43.316;5.372;2023-08-12T09:28:19;22.30;99.90
73277;DHT22;61501;43.316;5.372;2023-08-12T09:30:51;22.20;99.90
73277;DHT22;61501;43.316;5.372;2023-08-12T09:33:24;22.30;99.90
73277;DHT22;61501;43.316;5.372;2023-08-12T09:35:51;22.30;99.90
73277;DHT22;61501;43.316;5.372;2023-08-12T09:38:16;22.40;99.90
73277;DHT22;61501;43.316;5.372;2023-08-12T09:40:42;22.40;99.90
73277;DHT22;61501;43.316;5.372;2023-08-12T09:43:09;22.40;99.90
73277;DHT22;61501;43.316;5.372;2023-08-12T09:45:37;22.50;99.90
73277;DHT22;61501;43.316;5.372;2023-08-12T09:48:02;22.70;99.90
73277;DHT22;61501;43.316;5.372;2023-08-12T09:50:28;22.50;99.90
73277;DHT22;61501;43.316;5.372;2023-08-12T09:52:55;22.30;99.90
73277;DHT22;61501;43.316;5.372;2023-08-12T09:55:24;22.30;99.90
73277;DHT22;61501;43.316;5.372;2023-08-12T09:57:54;22.50;99.90
73277;DHT22;61501;43.316;5.372;2023-08-12T10:00:23;22.40;99.90
73277;DHT22;61501;43.316;5.372;2023-08-12T10:02:51;22.40;99.90
73277;DHT22;61501;43.316;5.372;2023-08-12T10:05:24;22.30;99.90
73277;DHT22;61501;43.316;5.372;2023-08-12T10:07:51;22.30;99.90
73277;DHT22;61501;43.316;5.372;2023-08-12T10:10:18;22.50;99.90
73277;DHT22;61501;43.316;5.372;2023-08-12T10:12:43;22.50;99.90
73277;DHT22;61501;43.316;5.372;2023-08-12T10:15:10;22.40;99.90
73277;DHT22;61501;43.316;5.372;2023-08-12T10:17:37;22.20;99.90
73277;DHT22;61501;43.316;5.372;2023-08-12T10:20:06;22.60;99.90
73277;DHT22;61501;43.316;5.372;2023-08-12T10:22:35;23.00;99.90
73277;DHT22;61501;43.316;5.372;2023-08-12T10:25:02;23.00;99.90
73277;DHT22;61501;43.316;5.372;2023-08-12T10:27:28;23.10;99.90
73277;DHT22;61501;43.316;5.372;2023-08-12T10:29:57;23.10;99.90
73277;DHT22;61501;43.316;5.372;2023-08-12T10:32:26;22.70;99.90
73277;DHT22;61501;43.316;5.372;2023-08-12T10:34:59;22.30;99.90
73277;DHT22;61501;43.316;5.372;2023-08-12T10:37:26;22.10;99.90
73277;DHT22;61501;43.316;5.372;2023-08-12T10:39:52;22.50;99.90
73277;DHT22;61501;43.316;5.372;2023-08-12T10:42:41;22.70;99.90
73277;DHT22;61501;43.316;5.372;2023-08-12T10:45:11;22.80;99.90
73277;DHT22;61501;43.316;5.372;2023-08-12T10:47:41;22.70;99.90
73277;DHT22;61501;43.316;5.372;2023-08-12T10:50:19;22.90;99.90
73277;DHT22;61501;43.316;5.372;2023-08-12T10:52:46;23.20;99.90
73277;DHT22;61501;43.316;5.372;2023-08-12T10:55:25;23.40;99.90
73277;DHT22;61501;43.316;5.372;2023-08-12T10:57:54;23.40;99.90
73277;DHT22;61501;43.316;5.372;2023-08-12T11:00:23;23.50;99.90
73277;DHT22;61501;43.316;5.372;2023-08-12T11:02:51;23.50;99.90
73277;DHT22;61501;43.316;5.372;2023-08-12T11:05:17;23.30;99.90
73277;DHT22;61501;43.316;5.372;2023-08-12T11:07:59;23.30;99.90
73277;DHT22;61501;43.316;5.372;2023-08-12T11:10:27;23.60;99.90
73277;DHT22;61501;43.316;5.372;2023-08-12T11:12:57;23.80;99.90
73277;DHT22;61501;43.316;5.372;2023-08-12T11:15:31;23.70;99.90
73277;DHT22;61501;43.316;5.372;2023-08-12T11:17:58;23.80;99.90
73277;DHT22;61501;43.316;5.372;2023-08-12T11:20:25;23.70;99.90
73277;DHT22;61501;43.316;5.372;2023-08-12T11:22:53;23.70;99.90
73277;DHT22;61501;43.316;5.372;2023-08-12T11:25:19;23.80;99.90
73277;DHT22;61501;43.316;5.372;2023-08-12T11:27:47;23.50;99.90
73277;DHT22;61501;43.316;5.372;2023-08-12T11:30:15;23.60;99.90
73277;DHT22;61501;43.316;5.372;2023-08-12T11:32:42;23.70;99.90
73277;DHT22;61501;43.316;5.372;2023-08-12T11:35:09;23.50;99.90
73277;DHT22;61501;43.316;5.372;2023-08-12T11:37:40;23.60;99.90
73277;DHT22;61501;43.316;5.372;2023-08-12T11:40:07;24.00;99.90
73277;DHT22;61501;43.316;5.372;2023-08-12T11:42:40;24.20;99.90
73277;DHT22;61501;43.316;5.372;2023-08-12T11:45:07;24.10;99.90
73277;DHT22;61501;43.316;5.372;2023-08-12T11:47:34;23.40;99.90
73277;DHT22;61501;43.316;5.372;2023-08-12T11:50:08;23.80;99.90
73277;DHT22;61501;43.316;5.372;2023-08-12T11:52:35;23.10;99.90
73277;DHT22;61501;43.316;5.372;2023-08-12T11:55:01;23.50;99.90
73277;DHT22;61501;43.316;5.372;2023-08-12T11:57:27;23.80;99.90
73277;DHT22;61501;43.316;5.372;2023-08-12T12:00:01;23.40;99.90
73277;DHT22;61501;43.316;5.372;2023-08-12T12:02:49;23.60;99.90
73277;DHT22;61501;43.316;5.372;2023-08-12T12:05:21;24.30;99.90
73277;DHT22;61501;43.316;5.372;2023-08-12T12:07:48;24.50;99.90
73277;DHT22;61501;43.316;5.372;2023-08-12T12:10:28;24.60;99.90
73277;DHT22;61501;43.316;5.372;2023-08-12T12:12:55;24.70;99.90
73277;DHT22;61501;43.316;5.372;2023-08-12T12:15:21;25.00;99.90
73277;DHT22;61501;43.316;5.372;2023-08-12T12:17:48;24.70;99.90
73277;DHT22;61501;43.316;5.372;2023-08-12T12:20:14;24.70;99.90
73277;DHT22;61501;43.316;5.372;2023-08-12T12:22:42;24.60;99.90
73277;DHT22;61501;43.316;5.372;2023-08-12T12:25:10;24.70;99.90
73277;DHT22;61501;43.316;5.372;2023-08-12T12:27:38;24.60;99.90
73277;DHT22;61501;43.316;5.372;2023-08-12T12:30:05;25.00;99.90
73277;DHT22;61501;43.316;5.372;2023-08-12T12:32:31;25.20;99.90
73277;DHT22;61501;43.316;5.372;2023-08-12T12:34:57;25.50;99.90
73277;DHT22;61501;43.316;5.372;2023-08-12T12:37:23;25.30;99.90
73277;DHT22;61501;43.316;5.372;2023-08-12T12:39:48;25.10;99.90
73277;DHT22;61501;43.316;5.372;2023-08-12T12:42:14;25.10;99.90
73277;DHT22;61501;43.316;5.372;2023-08-12T12:44:39;25.10;99.90
73277;DHT22;61501;43.316;5.372;2023-08-12T12:47:05;24.90;99.90
73277;DHT22;61501;43.316;5.372;2023-08-12T12:49:31;24.50;99.90
73277;DHT22;61501;43.316;5.372;2023-08-12T12:51:56;24.00;99.90
73277;DHT22;61501;43.316;5.372;2023-08-12T12:54:22;23.70;99.90
73277;DHT22;61501;43.316;5.372;2023-08-12T12:56:48;23.60;99.90
73277;DHT22;61501;43.316;5.372;2023-08-12T12:59:13;23.80;99.90
73277;DHT22;61501;43.316;5.372;2023-08-12T13:01:40;23.80;99.90
73277;DHT22;61501;43.316;5.372;2023-08-12T13:04:06;23.70;99.90
73277;DHT22;61501;43.316;5.372;2023-08-12T13:06:34;23.80;99.90
73277;DHT22;61501;43.316;5.372;2023-08-12T13:09:00;24.00;99.90
73277;DHT22;61501;43.316;5.372;2023-08-12T13:11:25;24.00;99.90
73277;DHT22;61501;43.316;5.372;2023-08-12T13:13:51;23.80;99.90
73277;DHT22;61501;43.316;5.372;2023-08-12T13:16:17;23.90;99.90
73277;DHT22;61501;43.316;5.372;2023-08-12T13:18:43;24.00;99.90
73277;DHT22;61501;43.316;5.372;2023-08-12T13:21:08;23.80;99.90
73277;DHT22;61501;43.316;5.372;2023-08-12T13:23:34;23.60;99.90
73277;DHT22;61501;43.316;5.372;2023-08-12T13:26:00;23.10;99.90
73277;DHT22;61501;43.316;5.372;2023-08-12T13:28:25;23.00;99.90
73277;DHT22;61501;43.316;5.372;2023-08-12T13:30:51;22.90;99.90
73277;DHT22;61501;43.316;5.372;2023-08-12T13:33:17;22.80;99.90
73277;DHT22;61501;43.316;5.372;2023-08-12T13:35:42;22.80;99.90
73277;DHT22;61501;43.316;5.372;2023-08-12T13:38:08;22.90;99.90
73277;DHT22;61501;43.316;5.372;2023-08-12T13:40:34;23.20;99.90
73277;DHT22;61501;43.316;5.372;2023-08-12T13:42:59;23.60;99.90
73277;DHT22;61501;43.316;5.372;2023-08-12T13:45:25;23.50;99.90
73277;DHT22;61501;43.316;5.372;2023-08-12T13:47:51;23.60;99.90
73277;DHT22;61501;43.316;5.372;2023-08-12T13:50:17;23.60;99.90
73277;DHT22;61501;43.316;5.372;2023-08-12T13:52:44;23.60;99.90
73277;DHT22;61501;43.316;5.372;2023-08-12T13:55:10;23.30;99.90
73277;DHT22;61501;43.316;5.372;2023-08-12T13:57:35;23.50;99.90
73277;DHT22;61501;43.316;5.372;2023-08-12T14:00:01;23.80;99.90
73277;DHT22;61501;43.316;5.372;2023-08-12T14:02:28;23.80;99.90
73277;DHT22;61501;43.316;5.372;2023-08-12T14:04:54;24.00;99.90
73277;DHT22;61501;43.316;5.372;2023-08-12T14:07:19;24.40;99.90
73277;DHT22;61501;43.316;5.372;2023-08-12T14:09:48;25.40;99.90
73277;DHT22;61501;43.316;5.372;2023-08-12T14:12:13;25.70;99.90
73277;DHT22;61501;43.316;5.372;2023-08-12T14:14:39;25.80;99.90
73277;DHT22;61501;43.316;5.372;2023-08-12T14:17:05;25.70;99.90
73277;DHT22;61501;43.316;5.372;2023-08-12T14:19:31;25.50;99.90
73277;DHT22;61501;43.316;5.372;2023-08-12T14:21:56;25.40;99.90
73277;DHT22;61501;43.316;5.372;2023-08-12T14:24:22;25.60;99.90
73277;DHT22;61501;43.316;5.372;2023-08-12T14:26:49;26.30;99.90
73277;DHT22;61501;43.316;5.372;2023-08-12T14:29:15;27.20;99.90
73277;DHT22;61501;43.316;5.372;2023-08-12T14:31:40;27.70;99.90
73277;DHT22;61501;43.316;5.372;2023-08-12T14:34:06;28.60;99.90
73277;DHT22;61501;43.316;5.372;2023-08-12T14:36:31;29.30;99.90
73277;DHT22;61501;43.316;5.372;2023-08-12T14:38:57;29.60;99.90
73277;DHT22;61501;43.316;5.372;2023-08-12T14:41:23;29.60;99.00
73277;DHT22;61501;43.316;5.372;2023-08-12T14:43:48;29.40;96.90
73277;DHT22;61501;43.316;5.372;2023-08-12T14:46:14;29.60;95.90
73277;DHT22;61501;43.316;5.372;2023-08-12T14:48:39;29.90;93.70
73277;DHT22;61501;43.316;5.372;2023-08-12T14:51:05;29.70;94.00
73277;DHT22;61501;43.316;5.372;2023-08-12T14:53:31;29.50;94.10
73277;DHT22;61501;43.316;5.372;2023-08-12T14:55:56;29.50;93.90
73277;DHT22;61501;43.316;5.372;2023-08-12T14:58:22;29.70;93.60
73277;DHT22;61501;43.316;5.372;2023-08-12T15:00:47;29.20;94.50
73277;DHT22;61501;43.316;5.372;2023-08-12T15:03:13;28.70;96.30
73277;DHT22;61501;43.316;5.372;2023-08-12T15:05:40;28.40;98.40
73277;DHT22;61501;43.316;5.372;2023-08-12T15:08:06;28.70;96.00
73277;DHT22;61501;43.316;5.372;2023-08-12T15:10:32;28.30;97.40
73277;DHT22;61501;43.316;5.372;2023-08-12T15:12:57;28.50;97.10
73277;DHT22;61501;43.316;5.372;2023-08-12T15:15:23;28.00;98.70
73277;DHT22;61501;43.316;5.372;2023-08-12T15:17:49;27.40;99.90
73277;DHT22;61501;43.316;5.372;2023-08-12T15:20:14;27.80;99.90
73277;DHT22;61501;43.316;5.372;2023-08-12T15:22:40;28.00;99.90
73277;DHT22;61501;43.316;5.372;2023-08-12T15:25:06;27.90;99.90